createdAt,value
2019-03-19T00:04:07.556Z,2.30
2019-03-19T00:06:55.617Z,2.57
2019-03-19T00:09:49.156Z,3.33
2019-03-19T00:12:30.912Z,2.00
2019-03-19T00:17:57.213Z,2.33
2019-03-19T00:23:19.204Z,2.70
2019-03-19T00:26:03.709Z,2.27
2019-03-19T00:28:47.104Z,1.80
2019-03-19T00:31:28.903Z,2.13
2019-03-19T00:34:10.449Z,1.23
2019-03-19T00:36:55.521Z,2.53
2019-03-19T00:39:36.993Z,2.70
2019-03-19T00:42:18.997Z,2.60
2019-03-19T00:45:00.251Z,2.27
2019-03-19T00:47:41.906Z,3.63
2019-03-19T00:50:23.837Z,2.40
2019-03-19T00:56:10.447Z,2.20
2019-03-19T00:58:56.382Z,2.77
2019-03-19T01:02:01.046Z,1.90
2019-03-19T01:05:20.418Z,3.77
2019-03-19T01:08:12.307Z,3.17
2019-03-19T01:13:38.019Z,2.20
2019-03-19T01:16:23.557Z,2.30
2019-03-19T01:19:14.055Z,2.03
2019-03-19T01:21:55.370Z,3.10
2019-03-19T01:24:36.961Z,1.87
2019-03-19T01:27:36.814Z,2.50
2019-03-19T01:30:22.521Z,1.97
2019-03-19T01:33:14.978Z,2.70
2019-03-19T01:35:47.711Z,3.13
2019-03-19T01:41:38.250Z,2.20
2019-03-19T01:44:25.735Z,2.53
2019-03-19T01:47:36.721Z,2.13
2019-03-19T01:49:37.045Z,2.67
2019-03-19T01:52:25.110Z,2.10
2019-03-19T01:55:13.188Z,2.13
2019-03-19T01:58:01.282Z,3.03
2019-03-19T02:00:49.348Z,2.47
2019-03-19T02:03:37.348Z,1.70
2019-03-19T02:06:25.448Z,2.70
2019-03-19T02:09:13.504Z,1.63
2019-03-19T02:12:01.598Z,2.20
2019-03-19T02:17:56.769Z,3.10
2019-03-19T02:20:44.808Z,2.13
2019-03-19T02:23:32.971Z,2.40
2019-03-19T02:26:21.036Z,2.80
2019-03-19T02:29:10.865Z,2.07
2019-03-19T02:31:59.052Z,2.00
2019-03-19T02:34:47.098Z,2.07
2019-03-19T02:37:35.158Z,2.70
2019-03-19T02:40:23.273Z,2.40
2019-03-19T02:43:13.065Z,2.40
2019-03-19T02:46:01.092Z,2.50
2019-03-19T02:48:49.140Z,2.80
2019-03-19T02:51:37.169Z,2.03
2019-03-19T02:54:25.211Z,2.83
2019-03-19T02:57:13.266Z,2.60
2019-03-19T03:00:01.424Z,2.80
2019-03-19T03:02:49.575Z,2.70
2019-03-19T03:05:37.683Z,2.20
2019-03-19T03:08:25.859Z,2.77
2019-03-19T03:11:07.052Z,2.47
2019-03-19T03:13:47.928Z,2.70
2019-03-19T03:16:28.593Z,2.53
2019-03-19T03:19:07.832Z,2.97
2019-03-19T03:21:55.893Z,2.63
2019-03-19T03:24:43.989Z,2.33
2019-03-19T03:27:32.077Z,3.20
2019-03-19T03:30:20.231Z,3.80
2019-03-19T03:33:08.321Z,3.20
2019-03-19T03:35:56.447Z,2.60
2019-03-19T03:38:44.594Z,3.53
2019-03-19T03:41:32.623Z,2.80
2019-03-19T03:44:22.414Z,2.70
2019-03-19T03:47:10.449Z,2.50
2019-03-19T03:49:58.594Z,2.90
2019-03-19T03:52:46.702Z,3.23
2019-03-19T03:55:34.795Z,3.20
2019-03-19T03:58:22.885Z,2.70
2019-03-19T04:01:11.023Z,2.60
2019-03-19T04:03:59.216Z,2.70
2019-03-19T04:06:47.297Z,3.20
2019-03-19T04:09:35.380Z,2.73
2019-03-19T04:12:23.392Z,3.00
2019-03-19T04:18:05.380Z,2.57
2019-03-19T04:20:46.550Z,2.73
2019-03-19T04:23:27.264Z,2.77
2019-03-19T04:26:08.121Z,2.10
2019-03-19T04:28:51.716Z,3.00
2019-03-19T04:31:32.203Z,1.93
2019-03-19T04:34:13.119Z,2.70
2019-03-19T04:36:53.705Z,2.20
2019-03-19T04:39:34.676Z,2.37
2019-03-19T04:42:15.361Z,2.37
2019-03-19T04:44:56.655Z,2.93
2019-03-19T04:47:37.471Z,2.53
2019-03-19T04:50:16.744Z,2.20
2019-03-19T04:53:16.599Z,2.27
2019-03-19T04:55:54.686Z,3.07
2019-03-19T04:58:42.803Z,2.50
2019-03-19T05:01:30.911Z,2.10
2019-03-19T05:04:19.037Z,2.73
2019-03-19T05:07:07.112Z,2.43
2019-03-19T05:09:55.260Z,3.00
2019-03-19T05:12:43.300Z,3.10
2019-03-19T05:15:31.459Z,2.60
2019-03-19T05:18:19.484Z,2.73
2019-03-19T05:21:07.547Z,2.50
2019-03-19T05:23:55.593Z,2.70
2019-03-19T05:26:43.599Z,2.93
2019-03-19T05:29:31.657Z,2.27
2019-03-19T05:32:19.680Z,2.47
2019-03-19T05:35:08.109Z,2.70
2019-03-19T05:37:56.187Z,2.93
2019-03-19T05:40:44.239Z,2.37
2019-03-19T05:43:32.292Z,2.33
2019-03-19T05:46:20.377Z,2.40
2019-03-19T05:49:08.431Z,3.13
2019-03-19T05:51:56.786Z,3.13
2019-03-19T05:54:44.900Z,2.50
2019-03-19T05:57:32.991Z,3.27
2019-03-19T06:03:29.986Z,2.93
2019-03-19T06:06:18.051Z,3.00
2019-03-19T06:09:07.539Z,3.13
2019-03-19T06:11:48.636Z,2.43
2019-03-19T06:14:29.509Z,2.73
2019-03-19T06:17:10.459Z,3.13
2019-03-19T06:19:51.165Z,3.00
2019-03-19T06:22:31.708Z,2.97
2019-03-19T06:25:12.523Z,2.83
2019-03-19T06:28:00.278Z,3.17
2019-03-19T06:30:35.436Z,4.17
2019-03-19T06:33:19.403Z,3.93
2019-03-19T06:35:59.891Z,3.70
2019-03-19T06:38:40.796Z,2.30
2019-03-19T06:41:21.640Z,2.87
2019-03-19T06:44:02.374Z,2.37
2019-03-19T06:46:43.058Z,2.30
2019-03-19T06:49:23.863Z,3.13
2019-03-19T06:52:04.892Z,3.30
2019-03-19T06:54:45.696Z,2.70
2019-03-19T06:57:26.594Z,2.70
2019-03-19T07:00:07.594Z,2.40
2019-03-19T07:05:30.560Z,2.70
2019-03-19T07:07:59.390Z,3.20
2019-03-19T07:10:28.291Z,2.23
2019-03-19T07:12:57.859Z,2.90
2019-03-19T07:15:46.202Z,2.70
2019-03-19T07:18:34.484Z,2.27
2019-03-19T07:21:22.587Z,2.87
2019-03-19T07:24:10.917Z,2.50
2019-03-19T07:26:59.062Z,2.70
2019-03-19T07:29:27.886Z,3.20
2019-03-19T07:32:16.053Z,3.30
2019-03-19T07:35:04.385Z,2.73
2019-03-19T07:37:52.554Z,2.83
2019-03-19T07:40:21.762Z,2.90
2019-03-19T07:43:09.960Z,2.90
2019-03-19T07:45:58.084Z,3.10
2019-03-19T07:48:46.467Z,2.77
2019-03-19T07:51:34.496Z,3.17
2019-03-19T07:54:22.551Z,2.50
2019-03-19T08:00:00.466Z,2.83
2019-03-19T08:02:48.656Z,2.70
2019-03-19T08:05:33.260Z,3.13
2019-03-19T08:08:12.436Z,2.70
2019-03-19T08:10:41.489Z,2.80
2019-03-19T08:13:10.647Z,3.00
2019-03-19T08:15:39.712Z,3.10
2019-03-19T08:18:08.843Z,3.67
2019-03-19T08:20:38.131Z,3.10
2019-03-19T08:23:26.240Z,3.10
2019-03-19T08:26:14.440Z,2.83
2019-03-19T08:29:02.703Z,2.60
2019-03-19T08:31:52.542Z,2.47
2019-03-19T08:34:40.871Z,2.90
2019-03-19T08:37:29.012Z,2.97
2019-03-19T08:40:17.141Z,2.70
2019-03-19T08:42:46.177Z,2.73
2019-03-19T08:45:15.067Z,2.40
2019-03-19T08:48:03.357Z,2.60
2019-03-19T08:50:51.401Z,2.80
2019-03-19T08:53:39.523Z,2.93
2019-03-19T08:56:27.579Z,3.47
2019-03-19T08:59:15.904Z,2.63
2019-03-19T09:02:04.120Z,3.00
2019-03-19T09:04:52.193Z,3.00
2019-03-19T09:07:40.370Z,2.70
2019-03-19T09:10:28.435Z,3.20
2019-03-19T09:15:51.782Z,3.00
2019-03-19T09:21:15.367Z,3.20
2019-03-19T09:23:56.558Z,2.43
2019-03-19T09:26:37.222Z,2.80
2019-03-19T09:29:18.357Z,2.47
2019-03-19T09:31:59.616Z,2.63
2019-03-19T09:34:40.511Z,2.40
2019-03-19T09:37:21.226Z,2.70
2019-03-19T09:40:01.690Z,3.00
2019-03-19T09:42:42.345Z,1.77
2019-03-19T09:45:23.118Z,3.07
2019-03-19T09:48:03.875Z,3.00
2019-03-19T09:50:43.014Z,2.30
2019-03-19T09:53:31.028Z,2.03
2019-03-19T09:56:19.114Z,1.90
2019-03-19T09:59:07.156Z,2.63
2019-03-19T10:01:55.233Z,2.10
2019-03-19T10:04:43.324Z,1.83
2019-03-19T10:07:31.434Z,2.37
2019-03-19T10:10:19.492Z,2.13
2019-03-19T10:13:07.530Z,2.07
2019-03-19T10:15:55.556Z,2.10
2019-03-19T10:18:43.585Z,1.97
2019-03-19T10:21:31.655Z,2.47
2019-03-19T10:24:19.684Z,2.73
2019-03-19T10:27:07.730Z,2.03
2019-03-19T10:29:55.952Z,1.67
2019-03-19T10:32:44.037Z,1.80
2019-03-19T10:35:32.116Z,2.10
2019-03-19T10:38:20.216Z,1.83
2019-03-19T10:41:08.266Z,1.73
2019-03-19T10:43:56.302Z,1.50
2019-03-19T10:46:36.802Z,2.37
2019-03-19T10:49:17.438Z,1.70
2019-03-19T10:51:58.057Z,2.37
2019-03-19T10:54:38.840Z,2.10
2019-03-19T10:57:19.500Z,1.40
2019-03-19T11:00:00.355Z,2.00
2019-03-19T11:02:41.628Z,2.20
2019-03-19T11:05:22.316Z,1.60
2019-03-19T11:08:03.118Z,2.30
2019-03-19T11:10:43.991Z,1.73
2019-03-19T11:13:25.002Z,1.80
2019-03-19T11:16:08.672Z,1.60
2019-03-19T11:18:49.467Z,1.93
2019-03-19T11:27:29.310Z,1.63
2019-03-19T11:30:10.432Z,2.00
2019-03-19T11:32:51.172Z,2.27
2019-03-19T11:35:31.685Z,2.03
2019-03-19T11:38:12.410Z,2.80
2019-03-19T11:40:53.270Z,2.50
2019-03-19T11:43:34.426Z,1.70
2019-03-19T11:46:15.232Z,2.23
2019-03-19T11:48:56.011Z,2.70
2019-03-19T11:51:37.008Z,1.77
2019-03-19T11:54:17.742Z,1.80
2019-03-19T11:56:58.397Z,2.10
2019-03-19T11:59:39.068Z,2.27
2019-03-19T12:02:25.958Z,2.10
2019-03-19T12:05:02.842Z,1.50
2019-03-19T12:07:43.317Z,2.00
2019-03-19T12:10:24.562Z,1.67
2019-03-19T12:13:05.052Z,1.40
2019-03-19T12:15:45.883Z,1.10
2019-03-19T12:18:26.590Z,1.40
2019-03-19T12:21:07.534Z,1.60
2019-03-19T12:23:43.706Z,1.47
2019-03-19T12:26:31.822Z,2.27
2019-03-19T12:29:20.540Z,2.40
2019-03-19T12:32:08.697Z,1.90
2019-03-19T12:34:57.069Z,1.40
2019-03-19T12:37:25.990Z,1.70
2019-03-19T12:39:54.820Z,1.57
2019-03-19T12:42:23.956Z,1.67
2019-03-19T12:45:05.069Z,1.53
2019-03-19T12:47:45.668Z,1.73
2019-03-19T12:50:26.721Z,1.50
2019-03-19T12:53:07.891Z,2.10
2019-03-19T12:55:48.969Z,1.70
2019-03-19T12:58:29.753Z,1.63
2019-03-19T13:01:10.590Z,1.10
2019-03-19T13:03:51.516Z,1.80
2019-03-19T13:06:32.868Z,1.27
2019-03-19T13:09:13.523Z,1.27
2019-03-19T13:11:54.461Z,1.33
2019-03-19T13:14:35.025Z,1.50
2019-03-19T13:17:15.935Z,1.93
2019-03-19T13:19:56.603Z,1.37
2019-03-19T13:22:37.133Z,1.17
2019-03-19T13:25:18.083Z,1.90
2019-03-19T13:27:58.829Z,1.70
2019-03-19T13:30:45.012Z,1.30
2019-03-19T13:33:22.328Z,1.43
2019-03-19T13:36:02.875Z,1.30
2019-03-19T13:38:43.730Z,1.27
2019-03-19T13:41:24.596Z,1.33
2019-03-19T13:44:05.323Z,1.17
2019-03-19T13:46:46.157Z,1.57
2019-03-19T13:49:26.664Z,2.23
2019-03-19T13:52:07.287Z,1.37
2019-03-19T13:54:47.996Z,1.50
2019-03-19T13:57:28.769Z,1.90
2019-03-19T14:00:09.591Z,1.80
2019-03-19T14:02:50.785Z,1.43
2019-03-19T14:05:31.444Z,1.97
2019-03-19T14:08:12.123Z,1.60
2019-03-19T14:10:54.270Z,1.63
2019-03-19T14:13:35.491Z,1.97
2019-03-19T14:16:16.851Z,1.70
2019-03-19T14:18:57.677Z,1.30
2019-03-19T14:21:38.408Z,1.37
2019-03-19T14:24:19.173Z,1.07
2019-03-19T14:26:59.855Z,1.40
2019-03-19T14:29:40.953Z,1.63
2019-03-19T14:32:21.752Z,1.73
2019-03-19T14:35:02.666Z,1.60
2019-03-19T14:37:43.463Z,1.63
2019-03-19T14:40:24.303Z,1.40
2019-03-19T14:43:05.167Z,1.13
2019-03-19T14:45:46.066Z,2.10
2019-03-19T14:48:26.962Z,1.70
2019-03-19T14:51:07.835Z,1.93
2019-03-19T14:53:48.821Z,1.57
2019-03-19T14:56:29.626Z,1.10
2019-03-19T14:59:10.408Z,2.00
2019-03-19T15:01:51.334Z,1.43
2019-03-19T15:04:32.504Z,1.50
2019-03-19T15:07:13.807Z,1.80
2019-03-19T15:09:54.317Z,2.13
2019-03-19T15:12:35.160Z,1.43
2019-03-19T15:15:15.887Z,1.57
2019-03-19T15:17:56.676Z,1.60
2019-03-19T15:20:37.334Z,1.10
2019-03-19T15:23:17.763Z,1.80
2019-03-19T15:25:59.433Z,1.83
2019-03-19T15:28:40.343Z,1.80
2019-03-19T15:31:29.577Z,2.90
2019-03-19T15:34:03.550Z,2.57
2019-03-19T15:36:43.998Z,1.30
2019-03-19T15:39:24.819Z,2.43
2019-03-19T15:42:05.771Z,1.30
2019-03-19T15:44:46.721Z,1.67
2019-03-19T15:47:27.472Z,2.07
2019-03-19T15:50:08.767Z,2.40
2019-03-19T15:52:49.725Z,1.50
2019-03-19T15:55:30.074Z,1.77
2019-03-19T15:58:10.940Z,1.90
2019-03-19T16:00:51.760Z,1.80
2019-03-19T16:03:32.401Z,1.50
2019-03-19T16:06:11.508Z,1.80
2019-03-19T16:08:59.608Z,2.00
2019-03-19T16:11:47.646Z,2.47
2019-03-19T16:14:35.715Z,1.57
2019-03-19T16:17:23.763Z,2.23
2019-03-19T16:20:12.614Z,2.13
2019-03-19T16:23:00.766Z,2.13
2019-03-19T16:25:48.830Z,2.30
2019-03-19T16:28:36.472Z,1.87
2019-03-19T16:31:24.075Z,2.03
2019-03-19T16:34:11.751Z,1.63
2019-03-19T16:36:59.398Z,1.87
2019-03-19T16:39:47.008Z,1.43
2019-03-19T16:42:34.644Z,1.40
2019-03-19T16:45:22.273Z,1.77
2019-03-19T16:48:09.856Z,1.90
2019-03-19T16:50:57.486Z,2.30
2019-03-19T16:53:45.068Z,1.43
2019-03-19T16:56:32.685Z,1.83
2019-03-19T16:59:20.414Z,1.80
2019-03-19T17:02:08.021Z,1.70
2019-03-19T17:04:55.674Z,1.30
2019-03-19T20:15:06.865Z,2.70
2019-03-19T20:38:39.088Z,3.60
2019-03-19T20:41:07.520Z,2.70
2019-03-19T20:43:35.946Z,3.03
2019-03-19T20:46:04.421Z,3.10
2019-03-19T20:48:32.858Z,2.60
2019-03-19T20:51:01.304Z,4.40
2019-03-19T20:53:29.725Z,4.80
2019-03-19T20:55:58.140Z,3.60
2019-03-19T20:58:26.760Z,3.67
2019-03-19T21:00:55.535Z,2.63
2019-03-19T21:03:35.833Z,3.20
2019-03-19T21:06:41.698Z,2.13
2019-03-19T21:09:23.689Z,3.33
2019-03-19T21:11:56.675Z,2.80
2019-03-19T21:14:29.147Z,2.90
2019-03-19T21:16:57.652Z,3.57
2019-03-19T21:19:26.374Z,3.77
2019-03-19T21:21:54.738Z,2.53
2019-03-19T21:24:23.226Z,3.37
2019-03-19T21:26:51.630Z,3.53
2019-03-19T21:29:22.064Z,2.93
2019-03-19T21:31:50.475Z,3.00
2019-03-19T21:34:19.086Z,3.20
2019-03-19T21:36:51.550Z,4.30
2019-03-19T21:39:32.072Z,3.70
2019-03-19T21:42:27.772Z,3.30
2019-03-19T21:45:27.221Z,3.93
2019-03-19T21:47:55.602Z,3.13
2019-03-19T21:50:24.180Z,3.27
2019-03-19T21:52:54.928Z,3.60
2019-03-19T21:55:23.567Z,3.50
2019-03-19T21:57:52.020Z,3.13
2019-03-19T22:00:20.633Z,3.30
2019-03-19T22:02:48.982Z,2.90
2019-03-19T22:05:17.426Z,3.30
2019-03-19T22:07:48.225Z,3.33
2019-03-19T22:10:22.838Z,2.80
2019-03-19T22:12:51.269Z,3.47
2019-03-19T22:15:21.446Z,3.53
2019-03-19T22:17:50.230Z,3.20
2019-03-19T22:20:19.192Z,3.00
2019-03-19T22:22:47.683Z,3.30
2019-03-19T22:25:16.996Z,4.17
2019-03-19T22:27:45.703Z,2.70
2019-03-19T22:30:17.247Z,2.80
2019-03-19T22:32:45.744Z,3.37
2019-03-19T22:35:14.352Z,3.20
2019-03-19T22:37:42.850Z,2.50
2019-03-19T22:40:11.846Z,3.07
2019-03-19T22:42:40.308Z,3.40
2019-03-19T22:45:09.595Z,3.37
2019-03-19T22:47:37.986Z,3.67
2019-03-19T22:50:06.733Z,3.03
2019-03-19T22:52:35.301Z,2.87
2019-03-19T22:55:03.901Z,3.70
2019-03-19T22:57:32.325Z,3.20
2019-03-19T23:00:00.751Z,2.80
2019-03-19T23:02:29.249Z,3.50
2019-03-19T23:04:57.661Z,3.87
2019-03-19T23:07:26.140Z,3.27
2019-03-19T23:09:54.539Z,3.60
2019-03-19T23:12:23.017Z,2.93
2019-03-19T23:14:51.533Z,2.87
2019-03-19T23:17:20.023Z,2.50
2019-03-19T23:19:48.418Z,3.10
2019-03-19T23:22:16.801Z,2.70
2019-03-19T23:24:45.205Z,3.00
2019-03-19T23:27:13.571Z,2.80
2019-03-19T23:29:41.967Z,2.93
2019-03-19T23:32:10.562Z,2.90
2019-03-19T23:34:38.983Z,2.47
2019-03-19T23:37:07.467Z,2.53
2019-03-19T23:39:35.971Z,2.80
2019-03-19T23:42:04.437Z,2.73
2019-03-19T23:44:32.761Z,3.10
2019-03-19T23:47:01.149Z,3.17
2019-03-19T23:49:29.573Z,2.57
2019-03-19T23:51:58.187Z,2.43
2019-03-19T23:54:26.671Z,3.33
2019-03-19T23:56:55.145Z,2.10
2019-03-19T23:59:23.649Z,2.90
